createdAt,value
2019-06-07T00:00:02.916Z,1.40
2019-06-07T00:01:02.148Z,0.50
2019-06-07T00:02:02.183Z,1.40
2019-06-07T00:03:02.310Z,0.60
2019-06-07T00:04:02.169Z,0.70
2019-06-07T00:05:02.182Z,1.00
2019-06-07T00:06:02.308Z,0.60
2019-06-07T00:07:02.125Z,1.10
2019-06-07T00:08:07.843Z,0.50
2019-06-07T00:09:02.684Z,0.80
2019-06-07T00:10:02.218Z,0.80
2019-06-07T00:11:02.236Z,0.80
2019-06-07T00:12:02.265Z,0.50
2019-06-07T00:13:02.269Z,0.70
2019-06-07T00:14:02.474Z,1.00
2019-06-07T00:15:02.270Z,0.70
2019-06-07T00:16:02.313Z,0.50
2019-06-07T00:17:02.335Z,0.70
2019-06-07T00:18:02.332Z,1.10
2019-06-07T00:19:02.287Z,0.50
2019-06-07T00:20:02.905Z,0.80
2019-06-07T00:21:02.202Z,0.60
2019-06-07T00:22:22.564Z,0.50
2019-06-07T00:23:02.231Z,0.60
2019-06-07T00:24:02.239Z,0.90
2019-06-07T00:25:02.447Z,0.40
2019-06-07T00:26:02.155Z,1.00
2019-06-07T00:27:02.280Z,1.00
2019-06-07T00:28:02.301Z,0.70
2019-06-07T00:29:02.301Z,0.70
2019-06-07T00:30:29.709Z,0.60
2019-06-07T00:31:02.311Z,0.70
2019-06-07T00:32:02.266Z,0.60
2019-06-07T00:33:02.287Z,1.00
2019-06-07T00:34:02.326Z,0.80
2019-06-07T00:35:02.464Z,0.60
2019-06-07T00:36:02.430Z,0.80
2019-06-07T00:37:02.378Z,0.90
2019-06-07T00:38:02.351Z,0.60
2019-06-07T00:39:02.394Z,0.50
2019-06-07T00:40:14.122Z,0.70
2019-06-07T00:41:02.415Z,0.50
2019-06-07T00:42:02.398Z,0.50
2019-06-07T00:43:02.517Z,0.70
2019-06-07T00:44:02.412Z,0.60
2019-06-07T00:45:02.315Z,0.70
2019-06-07T00:46:02.407Z,0.70
2019-06-07T00:47:02.538Z,0.50
2019-06-07T00:48:02.221Z,0.80
2019-06-07T00:49:02.324Z,0.60
2019-06-07T00:50:02.451Z,0.60
2019-06-07T00:51:02.303Z,0.70
2019-06-07T00:52:02.425Z,0.70
2019-06-07T00:53:19.743Z,0.50
2019-06-07T00:54:02.387Z,0.90
2019-06-07T00:55:02.156Z,0.70
2019-06-07T00:56:02.243Z,0.80
2019-06-07T00:57:02.347Z,0.60
2019-06-07T00:58:02.646Z,0.60
2019-06-07T00:59:11.299Z,0.40
2019-06-07T01:00:02.302Z,0.60
2019-06-07T01:01:02.312Z,0.80
2019-06-07T01:02:02.365Z,0.70
2019-06-07T01:03:02.343Z,0.90
2019-06-07T01:04:02.332Z,0.70
2019-06-07T01:05:02.348Z,0.80
2019-06-07T01:06:02.346Z,0.60
2019-06-07T01:07:02.483Z,0.90
2019-06-07T01:08:02.449Z,0.60
2019-06-07T01:09:02.706Z,0.70
2019-06-07T01:10:02.367Z,0.70
2019-06-07T01:11:02.268Z,0.60
2019-06-07T01:12:02.389Z,0.60
2019-06-07T01:13:02.301Z,0.50
2019-06-07T01:14:02.317Z,0.50
2019-06-07T01:15:02.340Z,0.50
2019-06-07T01:16:02.407Z,0.70
2019-06-07T01:17:22.510Z,0.50
2019-06-07T01:19:02.461Z,0.70
2019-06-07T01:20:02.329Z,0.70
2019-06-07T01:21:02.345Z,0.30
2019-06-07T01:22:02.379Z,0.60
2019-06-07T01:23:02.405Z,0.40
2019-06-07T01:24:11.550Z,0.40
2019-06-07T01:25:02.391Z,0.90
2019-06-07T01:26:02.396Z,0.70
2019-06-07T01:27:02.361Z,0.80
2019-06-07T01:28:02.320Z,0.60
2019-06-07T01:29:02.434Z,0.90
2019-06-07T01:30:02.454Z,0.80
2019-06-07T01:31:02.304Z,0.60
2019-06-07T01:32:02.413Z,0.50
2019-06-07T01:33:02.658Z,0.90
2019-06-07T01:34:02.362Z,0.40
2019-06-07T01:35:02.346Z,0.40
2019-06-07T01:36:02.394Z,0.60
2019-06-07T01:37:02.424Z,0.50
2019-06-07T01:38:02.376Z,0.80
2019-06-07T01:39:02.395Z,0.60
2019-06-07T01:40:02.469Z,0.60
2019-06-07T01:41:02.524Z,0.90
2019-06-07T01:42:02.418Z,0.70
2019-06-07T01:43:02.435Z,0.70
2019-06-07T01:44:02.365Z,0.60
2019-06-07T01:45:02.369Z,0.40
2019-06-07T01:46:02.380Z,0.50
2019-06-07T01:47:02.395Z,0.50
2019-06-07T01:48:02.343Z,0.40
2019-06-07T01:49:02.362Z,0.60
2019-06-07T01:50:02.410Z,0.70
2019-06-07T01:51:02.590Z,0.60
2019-06-07T01:52:02.523Z,0.60
2019-06-07T01:53:02.403Z,0.80
2019-06-07T01:54:48.672Z,0.70
2019-06-07T01:55:02.437Z,0.80
2019-06-07T01:56:02.427Z,0.70
2019-06-07T01:57:02.507Z,0.70
2019-06-07T01:58:02.345Z,0.60
2019-06-07T01:59:02.361Z,0.40
2019-06-07T02:00:02.381Z,0.80
2019-06-07T02:01:02.385Z,0.50
2019-06-07T02:02:02.418Z,0.70
2019-06-07T02:03:02.444Z,0.90
2019-06-07T02:04:02.969Z,0.50
2019-06-07T02:05:02.496Z,0.40
2019-06-07T02:06:02.403Z,0.50
2019-06-07T02:07:02.452Z,0.60
2019-06-07T02:08:02.433Z,0.60
2019-06-07T02:09:02.586Z,1.00
2019-06-07T02:10:02.532Z,0.80
2019-06-07T02:11:02.454Z,0.50
2019-06-07T02:12:02.517Z,0.40
2019-06-07T02:13:02.444Z,0.80
2019-06-07T02:14:02.634Z,0.60
2019-06-07T02:15:03.209Z,0.80
2019-06-07T02:16:02.396Z,0.80
2019-06-07T02:17:02.470Z,0.70
2019-06-07T02:18:02.424Z,0.70
2019-06-07T02:19:03.912Z,0.50
2019-06-07T02:20:02.431Z,0.60
2019-06-07T02:21:02.506Z,0.40
2019-06-07T02:22:02.654Z,0.90
2019-06-07T02:23:02.417Z,0.80
2019-06-07T02:24:02.461Z,0.60
2019-06-07T02:25:35.079Z,1.20
2019-06-07T02:26:02.388Z,0.80
2019-06-07T02:27:02.501Z,1.10
2019-06-07T02:28:26.636Z,0.90
2019-06-07T02:29:02.403Z,1.50
2019-06-07T02:30:35.203Z,0.90
2019-06-07T02:31:02.344Z,1.20
2019-06-07T02:32:02.415Z,1.00
2019-06-07T02:33:02.408Z,1.10
2019-06-07T02:34:02.441Z,0.50
2019-06-07T02:35:02.440Z,0.80
2019-06-07T02:36:02.561Z,1.50
2019-06-07T02:37:02.503Z,0.80
2019-06-07T02:38:02.415Z,1.40
2019-06-07T02:39:02.418Z,0.70
2019-06-07T02:40:02.483Z,1.00
2019-06-07T02:41:02.499Z,1.10
2019-06-07T02:42:02.498Z,0.90
2019-06-07T02:43:02.430Z,0.70
2019-06-07T02:44:02.495Z,0.60
2019-06-07T02:45:02.630Z,1.00
2019-06-07T02:46:24.437Z,0.70
2019-06-07T02:47:02.517Z,0.70
2019-06-07T02:48:02.427Z,1.00
2019-06-07T02:49:02.424Z,0.90
2019-06-07T02:50:02.428Z,0.80
2019-06-07T02:51:02.427Z,0.60
2019-06-07T02:52:02.586Z,0.50
2019-06-07T02:53:02.467Z,1.30
2019-06-07T02:54:02.491Z,1.10
2019-06-07T02:55:02.481Z,0.80
2019-06-07T02:57:02.909Z,0.70
2019-06-07T02:58:02.495Z,1.00
2019-06-07T02:59:02.512Z,0.90
2019-06-07T03:00:17.067Z,0.90
2019-06-07T03:01:09.337Z,0.90
2019-06-07T03:02:02.709Z,0.90
2019-06-07T03:03:02.526Z,1.00
2019-06-07T03:04:02.449Z,0.70
2019-06-07T03:05:02.454Z,0.90
2019-06-07T03:06:02.570Z,1.00
2019-06-07T03:07:02.485Z,0.80
2019-06-07T03:08:02.661Z,0.30
2019-06-07T03:09:02.493Z,0.70
2019-06-07T03:10:02.522Z,1.00
2019-06-07T03:11:02.518Z,1.20
2019-06-07T03:12:02.531Z,0.70
2019-06-07T03:13:02.517Z,0.80
2019-06-07T03:14:02.539Z,1.00
2019-06-07T03:15:02.561Z,0.50
2019-06-07T03:16:02.533Z,0.90
2019-06-07T03:17:02.470Z,1.30
2019-06-07T03:18:02.469Z,0.90
2019-06-07T03:19:02.658Z,1.00
2019-06-07T03:20:02.389Z,0.70
2019-06-07T03:21:05.513Z,0.90
2019-06-07T03:22:02.491Z,1.00
2019-06-07T03:23:02.489Z,1.00
2019-06-07T03:24:02.490Z,1.00
2019-06-07T03:25:02.600Z,0.70
2019-06-07T03:26:02.540Z,1.00
2019-06-07T03:27:34.849Z,1.00
2019-06-07T03:28:02.504Z,0.90
2019-06-07T03:29:02.635Z,1.10
2019-06-07T03:30:35.174Z,0.90
2019-06-07T03:31:03.141Z,1.60
2019-06-07T03:32:02.469Z,0.90
2019-06-07T03:33:06.276Z,1.20
2019-06-07T03:34:02.474Z,1.40
2019-06-07T03:35:02.495Z,1.00
2019-06-07T03:36:22.959Z,1.40
2019-06-07T03:37:02.756Z,0.80
2019-06-07T03:38:02.820Z,1.30
2019-06-07T03:39:02.746Z,0.90
2019-06-07T03:40:02.521Z,1.30
2019-06-07T03:41:02.521Z,1.50
2019-06-07T03:42:05.609Z,1.00
2019-06-07T03:43:02.623Z,1.00
2019-06-07T03:44:02.548Z,1.00
2019-06-07T03:45:02.573Z,0.80
2019-06-07T03:46:02.541Z,0.80
2019-06-07T03:47:02.616Z,1.00
2019-06-07T03:48:02.684Z,0.80
2019-06-07T03:49:02.575Z,1.00
2019-06-07T03:50:02.566Z,0.90
2019-06-07T03:51:04.986Z,1.20
2019-06-07T03:52:02.513Z,0.90
2019-06-07T03:53:02.518Z,1.00
2019-06-07T03:54:02.502Z,1.10
2019-06-07T03:55:02.539Z,1.50
2019-06-07T03:56:02.960Z,1.10
2019-06-07T03:57:02.650Z,1.30
2019-06-07T03:58:31.317Z,1.40
2019-06-07T03:59:02.544Z,1.30
2019-06-07T04:00:02.683Z,1.10
2019-06-07T04:01:02.478Z,1.60
2019-06-07T04:02:02.701Z,1.00
2019-06-07T04:03:02.450Z,1.00
2019-06-07T04:04:02.485Z,1.20
2019-06-07T04:05:02.519Z,1.00
2019-06-07T04:06:02.500Z,1.20
2019-06-07T04:07:02.509Z,1.00
2019-06-07T04:08:02.530Z,1.00
2019-06-07T04:09:02.516Z,0.90
2019-06-07T04:10:02.560Z,0.80
2019-06-07T04:11:02.723Z,1.10
2019-06-07T04:12:02.582Z,1.60
2019-06-07T04:13:02.571Z,1.40
2019-06-07T04:14:02.790Z,0.90
2019-06-07T04:15:02.553Z,1.50
2019-06-07T04:16:02.660Z,1.40
2019-06-07T04:17:02.606Z,1.30
2019-06-07T04:18:04.079Z,1.20
2019-06-07T04:19:02.488Z,1.60
2019-06-07T04:20:03.041Z,1.30
2019-06-07T04:21:02.515Z,0.90
2019-06-07T04:22:02.649Z,1.20
2019-06-07T04:23:02.477Z,0.70
2019-06-07T04:24:02.528Z,1.10
2019-06-07T04:25:02.572Z,1.30
2019-06-07T04:26:02.652Z,0.90
2019-06-07T04:27:02.534Z,1.10
2019-06-07T04:28:02.889Z,1.20
2019-06-07T04:29:32.544Z,1.10
2019-06-07T04:30:07.337Z,1.20
2019-06-07T04:31:02.616Z,1.30
2019-06-07T04:32:04.311Z,1.40
2019-06-07T04:33:02.702Z,1.00
2019-06-07T04:34:02.724Z,0.80
2019-06-07T04:35:02.531Z,1.20
2019-06-07T04:36:02.560Z,1.20
2019-06-07T04:37:02.563Z,1.50
2019-06-07T04:38:02.534Z,1.20
2019-06-07T04:39:02.567Z,0.70
2019-06-07T04:40:02.608Z,1.10
2019-06-07T04:41:02.688Z,1.60
2019-06-07T04:42:02.608Z,1.60
2019-06-07T04:43:02.614Z,1.90
2019-06-07T04:44:02.720Z,1.70
2019-06-07T04:45:02.732Z,1.50
2019-06-07T04:46:02.561Z,1.00
2019-06-07T04:47:02.541Z,0.70
2019-06-07T04:48:02.778Z,1.20
2019-06-07T04:49:02.526Z,1.30
2019-06-07T04:50:02.538Z,1.50
2019-06-07T04:51:02.577Z,1.20
2019-06-07T04:52:02.600Z,1.30
2019-06-07T04:53:02.582Z,1.40
2019-06-07T04:54:02.573Z,0.70
2019-06-07T04:55:02.784Z,1.10
2019-06-07T04:56:02.598Z,1.20
2019-06-07T04:57:02.625Z,2.00
2019-06-07T04:58:02.643Z,1.20
2019-06-07T04:59:02.600Z,1.30
2019-06-07T05:00:33.330Z,1.20
2019-06-07T05:01:03.701Z,1.30
2019-06-07T05:02:02.575Z,0.80
2019-06-07T05:03:02.688Z,2.10
2019-06-07T05:04:02.612Z,1.60
2019-06-07T05:05:02.675Z,1.50
2019-06-07T05:06:02.836Z,1.60
2019-06-07T05:07:02.597Z,1.00
2019-06-07T05:08:07.376Z,1.40
2019-06-07T05:09:02.621Z,1.20
2019-06-07T05:10:02.658Z,1.30
2019-06-07T05:11:02.612Z,1.10
2019-06-07T05:12:02.649Z,0.70
2019-06-07T05:13:02.625Z,1.70
2019-06-07T05:14:02.709Z,1.40
2019-06-07T05:15:02.748Z,1.30
2019-06-07T05:16:02.623Z,1.30
2019-06-07T05:17:02.786Z,1.30
2019-06-07T05:18:05.563Z,1.60
2019-06-07T05:19:02.548Z,1.30
2019-06-07T05:20:02.682Z,1.00
2019-06-07T05:21:02.586Z,1.40
2019-06-07T05:22:04.752Z,1.50
2019-06-07T05:23:02.616Z,1.40
2019-06-07T05:24:07.480Z,1.50
2019-06-07T05:25:02.736Z,1.00
2019-06-07T05:26:02.625Z,1.30
2019-06-07T05:27:02.697Z,1.70
2019-06-07T05:28:02.780Z,1.40
2019-06-07T05:29:02.659Z,1.90
2019-06-07T05:30:24.304Z,1.60
2019-06-07T05:31:05.005Z,1.30
2019-06-07T05:32:02.779Z,1.60
2019-06-07T05:33:02.698Z,1.60
2019-06-07T05:34:02.676Z,1.90
2019-06-07T05:35:03.340Z,1.70
2019-06-07T05:36:02.580Z,1.50
2019-06-07T05:37:11.509Z,1.30
2019-06-07T05:38:02.617Z,1.90
2019-06-07T05:39:02.831Z,1.20
2019-06-07T05:40:02.613Z,2.30
2019-06-07T05:41:02.639Z,1.60
2019-06-07T05:42:02.668Z,1.90
2019-06-07T05:43:02.634Z,2.30
2019-06-07T05:44:12.491Z,2.00
2019-06-07T05:45:02.526Z,1.70
2019-06-07T05:46:02.789Z,1.80
2019-06-07T05:47:04.895Z,1.70
2019-06-07T05:48:02.835Z,1.50
2019-06-07T05:49:02.775Z,1.40
2019-06-07T05:50:03.458Z,1.90
2019-06-07T05:51:02.607Z,2.20
2019-06-07T05:52:02.617Z,1.90
2019-06-07T05:53:02.602Z,1.70
2019-06-07T05:54:02.655Z,2.10
2019-06-07T05:55:02.760Z,1.30
2019-06-07T05:56:02.688Z,1.40
2019-06-07T05:57:02.670Z,2.00
2019-06-07T05:58:02.737Z,1.80
2019-06-07T05:59:02.650Z,1.00
2019-06-07T06:00:02.753Z,1.60
2019-06-07T06:01:41.637Z,1.90
2019-06-07T06:02:14.036Z,1.50
2019-06-07T06:03:05.869Z,2.00
2019-06-07T06:04:02.725Z,1.70
2019-06-07T06:05:02.851Z,2.10
2019-06-07T06:06:02.693Z,1.30
2019-06-07T06:07:02.647Z,1.70
2019-06-07T06:08:02.659Z,1.70
2019-06-07T06:09:13.358Z,1.60
2019-06-07T06:10:03.035Z,1.80
2019-06-07T06:11:02.635Z,1.50
2019-06-07T06:12:02.798Z,1.30
2019-06-07T06:13:02.618Z,1.50
2019-06-07T06:14:07.371Z,1.70
2019-06-07T06:15:02.690Z,1.80
2019-06-07T06:16:02.692Z,1.80
2019-06-07T06:17:02.860Z,1.20
2019-06-07T06:18:02.693Z,1.50
2019-06-07T06:19:02.721Z,1.60
2019-06-07T06:20:02.884Z,2.10
2019-06-07T06:21:16.178Z,2.00
2019-06-07T06:22:02.712Z,1.50
2019-06-07T06:23:02.831Z,1.70
2019-06-07T06:24:02.624Z,1.50
2019-06-07T06:25:30.606Z,2.20
2019-06-07T06:26:02.657Z,1.30
2019-06-07T06:27:28.261Z,1.70
2019-06-07T06:28:11.006Z,1.50
2019-06-07T06:29:02.669Z,1.40
2019-06-07T06:30:02.666Z,1.70
2019-06-07T06:31:02.965Z,1.60
2019-06-07T06:32:40.555Z,2.10
2019-06-07T06:33:02.666Z,1.50
2019-06-07T06:34:02.829Z,2.00
2019-06-07T06:35:02.740Z,2.30
2019-06-07T06:36:02.759Z,2.20
2019-06-07T06:37:02.603Z,1.60
2019-06-07T06:38:02.705Z,1.70
2019-06-07T06:39:02.717Z,1.60
2019-06-07T06:40:02.773Z,2.00
2019-06-07T06:41:15.142Z,1.50
2019-06-07T06:42:03.940Z,1.60
2019-06-07T06:43:02.703Z,2.10
2019-06-07T06:44:02.920Z,1.60
2019-06-07T06:45:02.798Z,2.30
2019-06-07T06:46:02.802Z,2.20
2019-06-07T06:47:02.725Z,2.20
2019-06-07T06:48:02.980Z,2.20
2019-06-07T06:49:05.970Z,2.30
2019-06-07T06:50:02.858Z,2.00
2019-06-07T06:51:02.964Z,2.10
2019-06-07T06:52:03.613Z,2.30
2019-06-07T06:53:02.764Z,1.70
2019-06-07T06:54:02.766Z,1.40
2019-06-07T06:55:02.991Z,1.40
2019-06-07T06:56:02.780Z,2.40
2019-06-07T06:57:19.229Z,1.90
2019-06-07T06:58:02.667Z,2.20
2019-06-07T06:59:34.144Z,1.50
2019-06-07T07:00:02.689Z,1.70
2019-06-07T07:01:06.975Z,2.40
2019-06-07T07:02:03.029Z,2.20
2019-06-07T07:03:47.316Z,1.90
2019-06-07T07:04:11.249Z,2.40
2019-06-07T07:05:02.741Z,1.70
2019-06-07T07:06:24.573Z,1.90
2019-06-07T07:07:02.663Z,2.00
2019-06-07T07:08:02.914Z,1.50
2019-06-07T07:09:02.649Z,1.50
2019-06-07T07:10:03.188Z,1.50
2019-06-07T07:11:02.781Z,2.00
2019-06-07T07:13:02.712Z,2.00
2019-06-07T07:14:03.015Z,1.90
2019-06-07T07:15:02.767Z,2.30
2019-06-07T07:16:02.836Z,2.40
2019-06-07T07:17:03.115Z,1.90
2019-06-07T07:18:08.218Z,1.90
2019-06-07T07:19:02.748Z,1.90
2019-06-07T07:20:02.748Z,2.20
2019-06-07T07:21:02.840Z,2.20
2019-06-07T07:22:02.804Z,2.10
2019-06-07T07:23:02.798Z,2.20
2019-06-07T07:24:20.512Z,2.50
2019-06-07T07:25:02.709Z,2.50
2019-06-07T07:26:02.726Z,2.50
2019-06-07T07:27:04.702Z,2.10
2019-06-07T07:28:02.904Z,1.90
2019-06-07T07:29:02.858Z,1.90
2019-06-07T07:30:35.434Z,2.20
2019-06-07T07:31:02.723Z,1.90
2019-06-07T07:32:02.775Z,2.00
2019-06-07T07:33:04.603Z,1.90
2019-06-07T07:34:34.765Z,1.10
2019-06-07T07:35:02.754Z,1.80
2019-06-07T07:36:22.690Z,2.50
2019-06-07T07:37:02.796Z,2.00
2019-06-07T07:38:02.983Z,2.00
2019-06-07T07:39:05.015Z,1.40
2019-06-07T07:40:54.846Z,2.00
2019-06-07T07:41:13.994Z,1.80
2019-06-07T07:43:02.754Z,1.20
2019-06-07T07:44:07.131Z,1.50
2019-06-07T07:45:02.772Z,1.50
2019-06-07T07:46:06.097Z,2.20
2019-06-07T07:47:02.748Z,2.40
2019-06-07T07:49:02.888Z,1.70
2019-06-07T07:50:02.782Z,2.50
2019-06-07T07:51:03.340Z,1.60
2019-06-07T07:52:02.790Z,1.60
2019-06-07T07:53:02.707Z,2.20
2019-06-07T07:54:10.632Z,2.00
2019-06-07T07:55:02.726Z,1.40
2019-06-07T07:56:02.989Z,1.40
2019-06-07T07:57:02.764Z,2.20
2019-06-07T07:58:02.765Z,1.90
2019-06-07T07:59:03.032Z,2.70
2019-06-07T08:00:48.019Z,2.30
2019-06-07T08:01:09.998Z,1.70
2019-06-07T08:02:02.755Z,2.10
2019-06-07T08:03:04.589Z,2.30
2019-06-07T08:04:02.771Z,1.70
2019-06-07T08:05:22.646Z,2.60
2019-06-07T08:06:02.788Z,1.90
2019-06-07T08:07:02.798Z,1.30
2019-06-07T08:08:07.661Z,2.20
2019-06-07T08:09:02.695Z,2.00
2019-06-07T08:10:04.271Z,2.60
2019-06-07T08:11:02.950Z,2.00
2019-06-07T08:12:02.816Z,1.80
2019-06-07T08:13:23.957Z,2.00
2019-06-07T08:14:02.776Z,1.60
2019-06-07T08:15:03.744Z,1.90
2019-06-07T08:16:10.786Z,1.80
2019-06-07T08:17:02.813Z,2.70
2019-06-07T08:18:04.399Z,1.50
2019-06-07T08:19:04.109Z,1.60
2019-06-07T08:20:03.295Z,2.50
2019-06-07T08:21:21.104Z,1.70
2019-06-07T08:22:02.919Z,1.50
2019-06-07T08:23:02.975Z,2.30
2019-06-07T08:24:05.127Z,1.90
2019-06-07T08:25:04.441Z,1.80
2019-06-07T08:26:02.756Z,1.70
2019-06-07T08:27:24.646Z,2.50
2019-06-07T08:28:02.759Z,2.30
2019-06-07T08:29:03.197Z,2.60
2019-06-07T08:30:15.952Z,1.80
2019-06-07T08:31:06.689Z,2.10
2019-06-07T08:32:02.789Z,1.80
2019-06-07T08:33:24.600Z,1.60
2019-06-07T08:34:02.839Z,1.90
2019-06-07T08:35:10.326Z,1.90
2019-06-07T08:36:16.909Z,2.30
2019-06-07T08:37:02.861Z,1.70
2019-06-07T08:38:24.845Z,2.10
2019-06-07T08:39:07.189Z,1.80
2019-06-07T08:40:02.849Z,1.90
2019-06-07T08:41:11.477Z,2.30
2019-06-07T08:42:15.470Z,2.20
2019-06-07T08:44:22.364Z,1.80
2019-06-07T08:45:05.649Z,1.30
2019-06-07T08:46:07.480Z,2.20
2019-06-07T08:47:19.310Z,1.90
2019-06-07T08:48:12.917Z,1.30
2019-06-07T08:49:04.593Z,1.70
2019-06-07T08:50:07.487Z,1.90
2019-06-07T08:51:08.165Z,1.00
2019-06-07T08:52:10.462Z,1.90
2019-06-07T08:53:11.266Z,1.90
2019-06-07T08:55:05.107Z,1.60
2019-06-07T08:56:06.947Z,1.70
2019-06-07T08:57:19.347Z,2.70
2019-06-07T08:58:08.166Z,1.70
2019-06-07T08:59:10.814Z,1.70
2019-06-07T09:00:07.162Z,2.30
2019-06-07T09:01:07.843Z,1.90
2019-06-07T09:02:14.506Z,1.60
2019-06-07T09:03:06.876Z,2.30
2019-06-07T09:04:07.754Z,2.00
2019-06-07T09:05:11.602Z,1.70
2019-06-07T09:06:16.016Z,1.00
2019-06-07T09:07:15.222Z,1.80
2019-06-07T09:08:23.610Z,1.30
2019-06-07T09:09:05.175Z,1.40
2019-06-07T09:10:12.702Z,1.50
2019-06-07T09:11:10.154Z,1.60
2019-06-07T09:12:08.110Z,2.30
2019-06-07T09:13:04.937Z,2.20
2019-06-07T09:14:08.659Z,1.80
2019-06-07T09:15:14.791Z,1.70
2019-06-07T09:16:08.012Z,2.00
2019-06-07T09:17:08.757Z,2.00
2019-06-07T09:18:40.061Z,1.80
2019-06-07T09:19:06.680Z,1.40
2019-06-07T09:20:09.414Z,1.80
2019-06-07T09:21:07.688Z,1.90
2019-06-07T09:22:08.261Z,2.10
2019-06-07T09:23:11.571Z,2.00
2019-06-07T09:24:08.392Z,1.60
2019-06-07T09:25:10.317Z,1.50
2019-06-07T09:26:06.402Z,1.90
2019-06-07T09:27:07.204Z,2.00
2019-06-07T09:28:13.411Z,1.80
2019-06-07T09:29:07.049Z,2.20
2019-06-07T09:30:08.838Z,1.70
2019-06-07T09:31:08.437Z,1.90
2019-06-07T09:32:05.901Z,2.10
2019-06-07T09:33:05.746Z,2.30
2019-06-07T09:34:08.649Z,1.40
2019-06-07T09:35:08.480Z,2.00
2019-06-07T09:36:09.202Z,1.70
2019-06-07T09:37:23.176Z,2.20
2019-06-07T09:38:11.033Z,1.70
2019-06-07T09:39:08.386Z,1.60
2019-06-07T09:40:19.402Z,1.50
2019-06-07T09:41:05.748Z,1.30
2019-06-07T09:42:08.437Z,2.00
2019-06-07T09:43:55.363Z,2.00
2019-06-07T09:44:19.098Z,1.90
2019-06-07T09:45:06.551Z,2.30
2019-06-07T09:46:09.411Z,1.90
2019-06-07T09:47:29.579Z,1.80
2019-06-07T09:48:10.084Z,2.10
2019-06-07T09:49:19.155Z,2.00
2019-06-07T09:50:07.091Z,1.70
2019-06-07T09:51:09.719Z,2.50
2019-06-07T09:52:07.389Z,2.30
2019-06-07T09:53:10.082Z,2.60
2019-06-07T09:54:06.866Z,1.90
2019-06-07T09:55:09.182Z,2.20
2019-06-07T09:56:06.363Z,2.10
2019-06-07T09:57:05.336Z,1.60
2019-06-07T09:58:47.866Z,2.50
2019-06-07T09:59:06.702Z,1.60
2019-06-07T10:00:33.543Z,2.20
2019-06-07T10:01:06.178Z,2.10
2019-06-07T10:02:05.239Z,2.30
2019-06-07T10:03:08.826Z,1.80
2019-06-07T10:04:08.260Z,2.20
2019-06-07T10:05:05.204Z,2.20
2019-06-07T10:06:07.547Z,2.20
2019-06-07T10:07:10.493Z,1.90
2019-06-07T10:08:14.539Z,1.60
2019-06-07T10:10:24.768Z,1.30
2019-06-07T10:11:03.107Z,2.20
2019-06-07T10:12:04.559Z,2.40
2019-06-07T10:13:04.097Z,1.80
2019-06-07T10:14:03.007Z,2.20
2019-06-07T10:15:03.210Z,2.30
2019-06-07T10:16:02.952Z,2.10
2019-06-07T10:17:09.185Z,1.90
2019-06-07T10:18:03.209Z,2.20
2019-06-07T10:19:03.651Z,1.70
2019-06-07T10:20:04.009Z,2.00
2019-06-07T10:21:03.774Z,1.50
2019-06-07T10:22:03.315Z,1.80
2019-06-07T10:23:05.570Z,2.30
2019-06-07T10:24:03.472Z,1.70
2019-06-07T10:25:04.383Z,2.10
2019-06-07T10:26:04.051Z,1.50
2019-06-07T10:27:04.003Z,1.80
2019-06-07T10:28:03.830Z,2.50
2019-06-07T10:29:05.559Z,2.40
2019-06-07T10:30:04.075Z,2.00
2019-06-07T10:31:04.514Z,2.00
2019-06-07T10:32:04.420Z,1.80
2019-06-07T10:33:04.673Z,2.00
2019-06-07T10:34:04.168Z,2.60
2019-06-07T10:35:03.633Z,1.60
2019-06-07T10:36:04.426Z,2.20
2019-06-07T10:37:05.551Z,2.20
2019-06-07T10:38:04.476Z,2.40
2019-06-07T10:39:03.211Z,2.50
2019-06-07T10:40:03.126Z,2.60
2019-06-07T10:41:03.013Z,1.80
2019-06-07T10:42:04.579Z,2.50
2019-06-07T10:43:03.135Z,2.50
2019-06-07T10:44:03.309Z,1.60
2019-06-07T10:45:04.881Z,1.80
2019-06-07T10:46:03.625Z,1.50
2019-06-07T10:47:03.981Z,2.00
2019-06-07T10:48:03.612Z,1.90
2019-06-07T10:49:03.829Z,1.70
2019-06-07T10:50:03.884Z,1.70
2019-06-07T10:51:04.205Z,2.50
2019-06-07T10:52:04.817Z,1.90
2019-06-07T10:53:04.298Z,2.40
2019-06-07T10:54:11.230Z,2.40
2019-06-07T10:55:04.465Z,1.90
2019-06-07T10:56:04.765Z,1.80
2019-06-07T10:57:04.745Z,2.20
2019-06-07T10:58:03.100Z,2.20
2019-06-07T10:59:03.215Z,2.10
2019-06-07T11:00:03.541Z,2.20
2019-06-07T11:01:03.409Z,1.60
2019-06-07T11:02:03.495Z,2.50
2019-06-07T11:03:03.589Z,2.00
2019-06-07T11:04:03.405Z,2.30
2019-06-07T11:05:03.705Z,1.80
2019-06-07T11:06:03.739Z,2.50
2019-06-07T11:07:04.464Z,2.00
2019-06-07T11:08:03.886Z,2.80
2019-06-07T11:09:03.782Z,2.00
2019-06-07T11:10:10.702Z,1.80
2019-06-07T11:11:03.850Z,2.00
2019-06-07T11:12:04.316Z,1.60
2019-06-07T11:13:04.084Z,2.20
2019-06-07T11:14:04.287Z,1.90
2019-06-07T11:15:04.455Z,1.60
2019-06-07T11:16:04.596Z,1.90
2019-06-07T11:17:03.029Z,2.00
2019-06-07T11:18:03.224Z,2.30
2019-06-07T11:19:03.031Z,2.10
2019-06-07T11:20:03.103Z,1.60
2019-06-07T11:21:03.267Z,1.90
2019-06-07T11:22:03.171Z,2.30
2019-06-07T11:23:03.004Z,1.60
2019-06-07T11:24:03.281Z,1.70
2019-06-07T11:25:03.459Z,1.60
2019-06-07T11:26:03.308Z,1.50
2019-06-07T11:27:03.476Z,1.50
2019-06-07T11:28:03.573Z,1.80
2019-06-07T11:29:03.328Z,1.60
2019-06-07T11:30:03.213Z,1.70
2019-06-07T11:31:03.117Z,1.80
2019-06-07T11:32:03.193Z,1.80
2019-06-07T11:33:03.094Z,1.60
2019-06-07T11:34:03.147Z,1.60
2019-06-07T11:35:03.022Z,1.10
2019-06-07T11:36:03.139Z,2.20
2019-06-07T11:37:03.106Z,2.20
2019-06-07T11:38:03.194Z,2.00
2019-06-07T11:39:03.108Z,1.60
2019-06-07T11:40:03.077Z,2.10
2019-06-07T11:41:03.090Z,1.30
2019-06-07T11:42:03.389Z,1.90
2019-06-07T11:43:03.133Z,1.80
2019-06-07T11:44:03.154Z,1.50
2019-06-07T11:45:03.092Z,1.70
2019-06-07T11:46:03.176Z,1.30
2019-06-07T11:47:03.023Z,1.50
2019-06-07T11:48:03.023Z,1.80
2019-06-07T11:49:03.266Z,1.40
2019-06-07T11:50:03.053Z,2.30
2019-06-07T11:51:03.179Z,2.20
2019-06-07T11:52:03.056Z,1.10
2019-06-07T11:53:06.484Z,1.50
2019-06-07T11:54:03.152Z,2.20
2019-06-07T12:11:14.378Z,1.60
2019-06-07T12:12:10.406Z,1.40
2019-06-07T12:13:10.461Z,1.30
2019-06-07T12:14:11.017Z,1.50
2019-06-07T12:15:10.991Z,1.30
2019-06-07T12:16:11.251Z,1.60
2019-06-07T12:17:11.252Z,1.00
2019-06-07T12:18:11.240Z,1.40
2019-06-07T12:19:11.857Z,1.20
2019-06-07T12:20:11.367Z,1.00
2019-06-07T12:21:11.522Z,1.30
2019-06-07T12:22:11.645Z,0.90
2019-06-07T12:23:11.934Z,1.60
2019-06-07T12:24:10.512Z,1.20
2019-06-07T12:25:10.625Z,1.20
2019-06-07T12:26:10.355Z,1.30
2019-06-07T12:27:10.365Z,1.00
2019-06-07T12:28:10.718Z,1.00
2019-06-07T12:29:10.727Z,1.50
2019-06-07T12:30:18.125Z,1.60
2019-06-07T12:31:10.884Z,1.00
2019-06-07T12:32:11.454Z,0.90
2019-06-07T12:33:11.270Z,1.00
2019-06-07T12:34:11.253Z,1.30
2019-06-07T12:35:11.458Z,1.20
2019-06-07T13:28:44.953Z,0.50
2019-06-07T13:29:44.840Z,0.60
2019-06-07T13:30:44.918Z,0.50
2019-06-07T13:31:44.877Z,0.40
2019-06-07T13:32:45.033Z,0.40
2019-06-07T13:33:44.969Z,0.60
2019-06-07T13:34:44.994Z,0.60
2019-06-07T13:35:44.883Z,0.50
2019-06-07T13:36:44.936Z,0.80
2019-06-07T13:37:45.728Z,0.70
2019-06-07T13:38:44.953Z,0.50
2019-06-07T13:39:45.009Z,0.40
2019-06-07T13:40:44.913Z,0.50
2019-06-07T13:41:44.974Z,0.70
2019-06-07T13:42:44.779Z,0.70
2019-06-07T13:43:44.875Z,0.60
2019-06-07T13:44:45.107Z,0.30
2019-06-07T13:45:44.725Z,0.70
2019-06-07T13:46:44.856Z,0.50
2019-06-07T13:47:44.899Z,0.50
2019-06-07T13:48:44.949Z,1.00
2019-06-07T13:49:45.021Z,1.40
2019-06-07T13:50:44.855Z,0.40
2019-06-07T13:51:44.942Z,1.30
2019-06-07T13:52:46.706Z,1.00
2019-06-07T13:53:44.985Z,1.10
2019-06-07T13:54:44.952Z,1.40
2019-06-07T13:55:44.944Z,0.70
2019-06-07T13:57:01.289Z,1.40
2019-06-07T13:57:44.957Z,0.80
2019-06-07T13:58:44.940Z,0.70
2019-06-07T13:59:45.052Z,1.10
2019-06-07T14:00:44.855Z,0.60
2019-06-07T14:01:44.907Z,1.20
2019-06-07T14:02:44.949Z,0.90
2019-06-07T14:03:44.907Z,1.00
2019-06-07T14:04:44.938Z,1.30
2019-06-07T14:05:44.834Z,0.80
2019-06-07T14:06:45.074Z,1.10
2019-06-07T14:07:44.818Z,0.90
2019-06-07T14:08:45.066Z,1.60
2019-06-07T14:09:44.982Z,1.20
2019-06-07T14:10:44.961Z,0.70
2019-06-07T14:11:50.375Z,1.90
2019-06-07T14:12:44.985Z,1.40
2019-06-07T14:13:44.952Z,1.50
2019-06-07T14:14:45.243Z,1.50
2019-06-07T14:15:45.283Z,1.30
2019-06-07T14:16:44.945Z,0.90
2019-06-07T14:17:45.187Z,0.70
2019-06-07T14:18:44.850Z,0.80
2019-06-07T14:19:44.944Z,0.60
2019-06-07T14:20:45.852Z,1.10
2019-06-07T14:21:44.941Z,1.20
2019-06-07T14:22:44.894Z,1.00
2019-06-07T14:23:49.117Z,1.40
2019-06-07T14:24:44.898Z,1.30
2019-06-07T14:25:45.400Z,1.20
2019-06-07T14:26:45.007Z,1.10
2019-06-07T14:27:45.049Z,1.10
2019-06-07T14:28:45.076Z,1.20
2019-06-07T14:29:44.923Z,1.00
2019-06-07T14:30:44.963Z,1.00
2019-06-07T14:31:44.952Z,1.60
2019-06-07T14:32:44.986Z,1.10
2019-06-07T14:33:45.575Z,0.80
2019-06-07T14:34:44.900Z,1.30